Time,TemperatureF,DewpointF,PressureIn,WindDirection,WindDirectionDegrees,WindSpeedMPH,WindSpeedGustMPH,Humidity,HourlyPrecipIn,Conditions,Clouds,dailyrainin,SoftwareType,DateUTC
2013-06-08 00:01:00,69.3,69.3,29.77,ENE,75,0.0,0.0,100,0.00,,,1.29,LWC V2.00 B2112,2013-06-08 04:01:00,
2013-06-08 00:06:00,69.3,69.3,29.77,ENE,75,0.0,0.0,100,0.00,,,1.29,LWC V2.00 B2112,2013-06-08 04:06:00,
2013-06-08 00:11:00,69.3,69.3,29.78,ENE,75,0.0,0.0,100,0.00,,,1.29,LWC V2.00 B2112,2013-06-08 04:11:00,
2013-06-08 00:16:00,69.3,69.3,29.78,ENE,75,0.0,0.0,100,0.00,,,1.29,LWC V2.00 B2112,2013-06-08 04:16:00,
2013-06-08 00:21:00,69.3,69.3,29.78,ENE,75,0.0,0.0,100,0.00,,,1.29,LWC V2.00 B2112,2013-06-08 04:21:00,
2013-06-08 00:26:00,69.3,69.3,29.78,ENE,75,0.0,0.0,100,0.00,,,1.29,LWC V2.00 B2112,2013-06-08 04:26:00,
2013-06-08 00:31:00,69.3,69.3,29.78,ENE,75,0.0,0.0,100,0.00,,,1.29,LWC V2.00 B2112,2013-06-08 04:31:00,
2013-06-08 00:36:00,69.1,69.1,29.78,ENE,75,0.0,0.0,100,0.00,,,1.29,LWC V2.00 B2112,2013-06-08 04:36:00,
2013-06-08 00:41:00,69.1,69.1,29.78,ENE,75,0.0,0.0,100,0.00,,,1.29,LWC V2.00 B2112,2013-06-08 04:41:00,
2013-06-08 00:46:00,69.1,69.1,29.78,ENE,75,0.0,0.0,100,0.00,,,1.29,LWC V2.00 B2112,2013-06-08 04:46:00,
2013-06-08 00:51:00,69.1,69.1,29.78,ENE,75,0.0,0.0,100,0.00,,,1.29,LWC V2.00 B2112,2013-06-08 04:51:00,
2013-06-08 00:56:00,69.1,69.1,29.78,ENE,75,0.0,0.0,100,0.00,,,1.29,LWC V2.00 B2112,2013-06-08 04:56:00,
2013-06-08 01:01:00,69.1,69.1,29.78,ENE,75,0.0,0.0,100,0.00,,,1.29,LWC V2.00 B2112,2013-06-08 05:01:00,
2013-06-08 01:06:00,69.1,69.1,29.78,ENE,75,0.0,0.0,100,0.00,,,1.29,LWC V2.00 B2112,2013-06-08 05:06:00,
2013-06-08 01:11:00,69.1,69.1,29.78,ENE,75,0.0,0.0,100,0.00,,,1.29,LWC V2.00 B2112,2013-06-08 05:11:00,
2013-06-08 01:16:00,69.1,69.1,29.78,ENE,75,0.0,0.0,100,0.00,,,1.29,LWC V2.00 B2112,2013-06-08 05:16:00,
2013-06-08 01:21:00,69.1,69.1,29.78,ENE,75,0.0,0.0,100,0.00,,,1.29,LWC V2.00 B2112,2013-06-08 05:21:00,
2013-06-08 01:26:00,69.1,69.1,29.79,ENE,75,0.0,0.0,100,0.00,,,1.29,LWC V2.00 B2112,2013-06-08 05:26:00,
2013-06-08 01:31:00,68.9,68.9,29.79,ENE,75,0.0,0.0,100,0.00,,,1.29,LWC V2.00 B2112,2013-06-08 05:31:00,
2013-06-08 01:36:00,68.9,68.9,29.79,ENE,75,0.0,0.0,100,0.00,,,1.29,LWC V2.00 B2112,2013-06-08 05:36:00,
2013-06-08 01:41:00,68.9,68.9,29.79,ENE,75,0.0,0.0,100,0.00,,,1.29,LWC V2.00 B2112,2013-06-08 05:41:00,
2013-06-08 01:46:00,68.9,68.9,29.79,ENE,75,0.0,0.0,100,0.00,,,1.29,LWC V2.00 B2112,2013-06-08 05:46:00,
2013-06-08 01:51:00,68.9,68.9,29.79,ENE,75,0.0,0.0,100,0.00,,,1.29,LWC V2.00 B2112,2013-06-08 05:51:00,
2013-06-08 01:56:00,68.9,68.9,29.80,ENE,75,0.0,0.0,100,0.00,,,1.29,LWC V2.00 B2112,2013-06-08 05:56:00,
2013-06-08 02:01:00,68.8,68.8,29.80,ENE,75,0.0,0.0,100,0.00,,,1.29,LWC V2.00 B2112,2013-06-08 06:01:00,
2013-06-08 02:06:00,68.9,68.9,29.80,ENE,75,0.0,0.0,100,0.00,,,1.29,LWC V2.00 B2112,2013-06-08 06:06:00,
2013-06-08 02:11:00,68.9,68.9,29.80,ENE,75,0.0,0.0,100,0.00,,,1.29,LWC V2.00 B2112,2013-06-08 06:11:00,
2013-06-08 02:16:00,68.9,68.9,29.80,ENE,75,0.0,0.0,100,0.00,,,1.29,LWC V2.00 B2112,2013-06-08 06:16:00,
2013-06-08 02:21:00,68.9,68.9,29.80,ENE,75,0.0,0.0,100,0.00,,,1.29,LWC V2.00 B2112,2013-06-08 06:21:00,
2013-06-08 02:26:00,68.9,68.9,29.80,ENE,75,0.0,0.0,100,0.00,,,1.29,LWC V2.00 B2112,2013-06-08 06:26:00,
2013-06-08 02:31:00,68.9,68.9,29.80,ENE,75,0.0,0.0,100,0.00,,,1.29,LWC V2.00 B2112,2013-06-08 06:31:00,
2013-06-08 02:36:00,69.1,69.1,29.80,ENE,75,0.0,0.0,100,0.00,,,1.29,LWC V2.00 B2112,2013-06-08 06:36:00,
2013-06-08 02:41:00,69.1,69.1,29.81,ENE,75,0.0,0.0,100,0.00,,,1.29,LWC V2.00 B2112,2013-06-08 06:41:00,
2013-06-08 02:46:00,69.3,69.3,29.81,ENE,75,0.0,0.0,100,0.00,,,1.29,LWC V2.00 B2112,2013-06-08 06:46:00,
2013-06-08 02:51:00,69.3,69.3,29.81,ENE,75,0.0,0.0,100,0.00,,,1.29,LWC V2.00 B2112,2013-06-08 06:51:00,
2013-06-08 02:56:00,69.4,69.4,29.81,ENE,75,0.0,0.0,100,0.00,,,1.29,LWC V2.00 B2112,2013-06-08 06:56:00,
2013-06-08 03:01:00,69.4,69.4,29.81,ENE,75,0.0,0.0,100,0.00,,,1.30,LWC V2.00 B2112,2013-06-08 07:01:00,
2013-06-08 03:06:00,69.4,69.4,29.81,ENE,75,0.0,0.0,100,0.00,,,1.30,LWC V2.00 B2112,2013-06-08 07:06:00,
2013-06-08 03:11:00,69.4,69.4,29.80,ENE,75,0.0,0.0,100,0.00,,,1.30,LWC V2.00 B2112,2013-06-08 07:11:00,
2013-06-08 03:16:00,69.4,69.4,29.80,ENE,75,0.0,0.0,100,0.00,,,1.30,LWC V2.00 B2112,2013-06-08 07:16:00,
2013-06-08 03:21:00,69.4,69.4,29.80,ENE,75,0.0,0.0,100,0.00,,,1.30,LWC V2.00 B2112,2013-06-08 07:21:00,
2013-06-08 03:26:00,69.4,69.4,29.80,ENE,75,0.0,0.0,100,0.00,,,1.30,LWC V2.00 B2112,2013-06-08 07:26:00,
2013-06-08 03:31:00,69.4,69.4,29.80,ENE,75,0.0,0.0,100,0.00,,,1.30,LWC V2.00 B2112,2013-06-08 07:31:00,
2013-06-08 03:36:00,69.4,69.4,29.80,ENE,75,0.0,0.0,100,0.00,,,1.30,LWC V2.00 B2112,2013-06-08 07:36:00,
2013-06-08 03:41:00,69.3,69.3,29.80,ENE,75,0.0,0.0,100,0.00,,,1.30,LWC V2.00 B2112,2013-06-08 07:41:00,
2013-06-08 03:46:00,69.3,69.3,29.80,ENE,75,0.0,0.0,100,0.00,,,1.30,LWC V2.00 B2112,2013-06-08 07:46:00,
2013-06-08 03:51:00,69.3,69.3,29.80,ENE,75,0.0,0.0,100,0.00,,,1.30,LWC V2.00 B2112,2013-06-08 07:51:00,
2013-06-08 03:56:00,69.1,69.1,29.80,ENE,75,0.0,0.0,100,0.00,,,1.30,LWC V2.00 B2112,2013-06-08 07:56:00,
2013-06-08 04:01:00,69.1,69.1,29.80,ENE,75,0.0,0.0,100,0.00,,,1.30,LWC V2.00 B2112,2013-06-08 08:01:00,
2013-06-08 04:06:00,69.1,69.1,29.80,ENE,75,0.0,0.0,100,0.00,,,1.30,LWC V2.00 B2112,2013-06-08 08:06:00,
2013-06-08 04:11:00,69.1,69.1,29.80,ENE,75,0.0,0.0,100,0.00,,,1.30,LWC V2.00 B2112,2013-06-08 08:11:00,
2013-06-08 04:16:00,68.9,68.9,29.80,ENE,75,0.0,0.0,100,0.00,,,1.30,LWC V2.00 B2112,2013-06-08 08:16:00,
2013-06-08 04:21:00,68.9,68.9,29.80,ENE,75,0.0,0.0,100,0.00,,,1.30,LWC V2.00 B2112,2013-06-08 08:21:00,
2013-06-08 04:26:00,68.9,68.9,29.80,ENE,75,0.0,0.0,100,0.00,,,1.30,LWC V2.00 B2112,2013-06-08 08:26:00,
2013-06-08 04:31:00,68.8,68.8,29.80,ENE,75,0.0,0.0,100,0.00,,,1.30,LWC V2.00 B2112,2013-06-08 08:31:00,
2013-06-08 04:36:00,68.8,68.8,29.80,ENE,75,0.0,0.0,100,0.00,,,1.30,LWC V2.00 B2112,2013-06-08 08:36:00,
2013-06-08 04:41:00,68.8,68.8,29.80,ENE,75,0.0,0.0,100,0.00,,,1.30,LWC V2.00 B2112,2013-06-08 08:41:00,
2013-06-08 04:46:00,68.6,68.6,29.80,ENE,75,0.0,0.0,100,0.00,,,1.30,LWC V2.00 B2112,2013-06-08 08:46:00,
2013-06-08 04:51:00,68.6,68.6,29.80,ENE,75,0.0,0.0,100,0.00,,,1.30,LWC V2.00 B2112,2013-06-08 08:51:00,
2013-06-08 04:56:00,68.4,68.4,29.80,ENE,75,0.0,0.0,100,0.00,,,1.30,LWC V2.00 B2112,2013-06-08 08:56:00,
2013-06-08 05:01:00,68.4,68.4,29.80,ENE,75,0.0,0.0,100,0.00,,,1.30,LWC V2.00 B2112,2013-06-08 09:01:00,
2013-06-08 05:06:00,68.4,68.4,29.80,ENE,75,0.0,0.0,100,0.00,,,1.30,LWC V2.00 B2112,2013-06-08 09:06:00,
2013-06-08 05:11:00,68.4,68.4,29.82,ENE,75,0.0,0.0,100,0.00,,,1.30,LWC V2.00 B2112,2013-06-08 09:11:00,
2013-06-08 05:16:00,68.4,68.4,29.82,ENE,75,0.0,0.0,100,0.00,,,1.30,LWC V2.00 B2112,2013-06-08 09:16:00,
2013-06-08 05:21:00,68.4,68.4,29.82,ENE,75,0.0,0.0,100,0.00,,,1.30,LWC V2.00 B2112,2013-06-08 09:21:00,
2013-06-08 05:26:00,68.4,68.4,29.82,ENE,75,0.0,0.0,100,0.00,,,1.30,LWC V2.00 B2112,2013-06-08 09:26:00,
2013-06-08 05:31:00,68.4,68.4,29.82,ENE,75,0.0,0.0,100,0.00,,,1.30,LWC V2.00 B2112,2013-06-08 09:31:00,
2013-06-08 05:36:00,68.4,68.4,29.82,ENE,75,0.0,0.0,100,0.00,,,1.30,LWC V2.00 B2112,2013-06-08 09:36:00,
2013-06-08 05:41:00,68.4,68.4,29.82,ENE,75,0.0,0.0,100,0.00,,,1.30,LWC V2.00 B2112,2013-06-08 09:41:00,
2013-06-08 05:46:00,68.3,68.3,29.82,ENE,75,0.0,0.0,100,0.00,,,1.30,LWC V2.00 B2112,2013-06-08 09:46:00,
2013-06-08 05:51:00,68.3,68.3,29.82,ENE,75,0.0,0.0,100,0.00,,,1.30,LWC V2.00 B2112,2013-06-08 09:51:00,
2013-06-08 05:56:00,68.3,68.3,29.83,ENE,75,0.0,0.0,100,0.00,,,1.30,LWC V2.00 B2112,2013-06-08 09:56:00,
2013-06-08 06:01:00,68.1,68.1,29.83,ENE,75,0.0,0.0,100,0.00,,,1.30,LWC V2.00 B2112,2013-06-08 10:01:00,
2013-06-08 06:06:00,68.1,68.1,29.83,ENE,75,0.0,0.0,100,0.00,,,1.30,LWC V2.00 B2112,2013-06-08 10:06:00,
2013-06-08 06:11:00,68.1,68.1,29.84,ENE,75,0.0,0.0,100,0.00,,,1.30,LWC V2.00 B2112,2013-06-08 10:11:00,
2013-06-08 06:16:00,68.1,68.1,29.84,ENE,75,0.0,0.0,100,0.00,,,1.30,LWC V2.00 B2112,2013-06-08 10:16:00,
2013-06-08 06:21:00,68.1,68.1,29.84,ENE,75,0.0,0.0,100,0.00,,,1.30,LWC V2.00 B2112,2013-06-08 10:21:00,
2013-06-08 06:26:00,68.1,68.1,29.85,ENE,75,0.0,0.0,100,0.00,,,1.30,LWC V2.00 B2112,2013-06-08 10:26:00,
2013-06-08 06:31:00,68.3,68.3,29.85,ENE,75,0.0,0.0,100,0.00,,,1.30,LWC V2.00 B2112,2013-06-08 10:31:00,
2013-06-08 06:36:00,68.3,68.3,29.85,ENE,75,0.0,0.0,100,0.00,,,1.30,LWC V2.00 B2112,2013-06-08 10:36:00,
2013-06-08 06:41:00,68.4,68.4,29.85,ENE,75,0.0,0.0,100,0.00,,,1.30,LWC V2.00 B2112,2013-06-08 10:41:00,
2013-06-08 06:46:00,68.4,68.4,29.85,ENE,75,0.0,0.0,100,0.00,,,1.30,LWC V2.00 B2112,2013-06-08 10:46:00,
2013-06-08 06:51:00,68.4,68.4,29.85,ENE,75,0.0,0.0,100,0.00,,,1.30,LWC V2.00 B2112,2013-06-08 10:51:00,
2013-06-08 06:56:00,68.6,68.6,29.85,ENE,75,0.0,0.0,100,0.00,,,1.30,LWC V2.00 B2112,2013-06-08 10:56:00,
2013-06-08 07:01:00,68.6,68.6,29.85,ENE,75,0.0,0.0,100,0.00,,,1.30,LWC V2.00 B2112,2013-06-08 11:01:00,
2013-06-08 07:06:00,68.6,68.6,29.85,ENE,75,0.0,0.0,100,0.00,,,1.30,LWC V2.00 B2112,2013-06-08 11:06:00,
2013-06-08 07:11:00,68.6,68.6,29.85,ENE,75,0.0,0.0,100,0.00,,,1.30,LWC V2.00 B2112,2013-06-08 11:11:00,
2013-06-08 07:16:00,68.8,68.8,29.85,ENE,75,0.0,0.0,100,0.00,,,1.30,LWC V2.00 B2112,2013-06-08 11:16:00,
2013-06-08 07:21:00,68.8,68.8,29.85,ENE,75,0.0,0.0,100,0.00,,,1.30,LWC V2.00 B2112,2013-06-08 11:21:00,
2013-06-08 07:26:00,68.9,68.9,29.85,ENE,75,0.0,0.0,100,0.00,,,1.30,LWC V2.00 B2112,2013-06-08 11:26:00,
2013-06-08 07:31:00,68.9,68.9,29.85,ENE,75,0.0,0.0,100,0.00,,,1.30,LWC V2.00 B2112,2013-06-08 11:31:00,
2013-06-08 07:36:00,69.1,69.1,29.85,ENE,75,0.0,0.0,100,0.00,,,1.30,LWC V2.00 B2112,2013-06-08 11:36:00,
2013-06-08 07:41:00,69.1,69.1,29.86,ENE,75,0.0,0.0,100,0.00,,,1.30,LWC V2.00 B2112,2013-06-08 11:41:00,
2013-06-08 07:46:00,69.3,69.3,29.86,ENE,75,0.0,0.0,100,0.00,,,1.30,LWC V2.00 B2112,2013-06-08 11:46:00,
2013-06-08 07:51:00,69.3,69.3,29.86,ENE,75,0.0,0.0,100,0.00,,,1.30,LWC V2.00 B2112,2013-06-08 11:51:00,
2013-06-08 07:56:00,69.3,69.3,29.86,ENE,75,0.0,0.0,100,0.00,,,1.31,LWC V2.00 B2112,2013-06-08 11:56:00,
2013-06-08 08:01:00,69.4,69.4,29.86,ENE,75,0.0,0.0,100,0.00,,,1.31,LWC V2.00 B2112,2013-06-08 12:01:00,
2013-06-08 08:06:00,69.4,69.4,29.86,ENE,75,0.0,0.0,100,0.00,,,1.31,LWC V2.00 B2112,2013-06-08 12:06:00,
2013-06-08 08:11:00,69.6,69.6,29.86,ENE,75,0.0,0.0,100,0.00,,,1.31,LWC V2.00 B2112,2013-06-08 12:11:00,
2013-06-08 08:16:00,69.6,69.6,29.86,ENE,75,0.0,0.0,100,0.00,,,1.31,LWC V2.00 B2112,2013-06-08 12:16:00,
2013-06-08 08:21:00,69.6,69.6,29.86,ENE,75,0.0,0.0,100,0.00,,,1.31,LWC V2.00 B2112,2013-06-08 12:21:00,
2013-06-08 08:26:00,69.6,69.6,29.87,ENE,75,0.0,0.0,100,0.00,,,0.00,LWC V2.00 B2112,2013-06-08 12:26:00,
2013-06-08 08:31:00,69.8,69.8,29.87,ENE,75,0.0,0.0,100,0.00,,,0.00,LWC V2.00 B2112,2013-06-08 12:31:00,
2013-06-08 08:36:00,69.8,69.8,29.87,ENE,75,0.0,0.0,100,0.00,,,0.00,LWC V2.00 B2112,2013-06-08 12:36:00,
2013-06-08 08:41:00,69.8,69.8,29.87,ENE,75,0.0,0.0,100,0.00,,,0.00,LWC V2.00 B2112,2013-06-08 12:41:00,
2013-06-08 08:46:00,69.8,69.8,29.87,ENE,75,0.0,0.0,100,0.00,,,0.00,LWC V2.00 B2112,2013-06-08 12:46:00,
2013-06-08 08:51:00,69.8,69.8,29.87,ENE,75,0.0,0.0,100,0.00,,,0.00,LWC V2.00 B2112,2013-06-08 12:51:00,
2013-06-08 08:56:00,69.8,69.8,29.88,ENE,75,0.0,0.0,100,0.00,,,0.00,LWC V2.00 B2112,2013-06-08 12:56:00,
2013-06-08 09:01:00,69.8,69.8,29.88,ENE,75,0.0,0.0,100,0.00,,,0.00,LWC V2.00 B2112,2013-06-08 13:01:00,
2013-06-08 09:06:00,69.8,69.8,29.88,ENE,75,0.0,0.0,100,0.00,,,0.00,LWC V2.00 B2112,2013-06-08 13:06:00,
2013-06-08 09:11:00,69.8,69.8,29.89,ENE,76,0.0,0.0,100,0.00,,,0.00,LWC V2.00 B2112,2013-06-08 13:11:00,
2013-06-08 09:16:00,69.9,69.9,29.89,ENE,75,0.0,0.0,100,0.00,,,0.00,LWC V2.00 B2112,2013-06-08 13:16:00,
2013-06-08 09:21:00,69.9,69.9,29.89,ENE,75,0.0,0.0,100,0.00,,,0.00,LWC V2.00 B2112,2013-06-08 13:21:00,
2013-06-08 09:26:00,69.9,69.9,29.89,ENE,75,0.0,0.0,100,0.00,,,0.00,LWC V2.00 B2112,2013-06-08 13:26:00,
2013-06-08 09:31:00,70.1,70.1,29.89,ENE,75,0.0,0.0,100,0.00,,,0.00,LWC V2.00 B2112,2013-06-08 13:31:00,
2013-06-08 09:36:00,70.3,70.3,29.89,ENE,75,0.0,0.0,100,0.00,,,0.00,LWC V2.00 B2112,2013-06-08 13:36:00,
2013-06-08 09:41:00,70.3,70.3,29.90,ENE,75,0.0,0.0,100,0.00,,,0.00,LWC V2.00 B2112,2013-06-08 13:41:00,
2013-06-08 09:46:00,70.3,70.3,29.90,ENE,75,0.0,0.0,100,0.00,,,0.00,LWC V2.00 B2112,2013-06-08 13:46:00,
2013-06-08 09:51:00,70.3,70.3,29.90,ENE,75,0.0,0.0,100,0.00,,,0.00,LWC V2.00 B2112,2013-06-08 13:51:00,
2013-06-08 09:56:00,70.3,70.3,29.91,ENE,75,0.0,1.0,100,0.00,,,0.00,LWC V2.00 B2112,2013-06-08 13:56:00,
2013-06-08 10:01:00,70.3,70.3,29.91,ENE,75,0.0,0.0,100,0.00,,,0.00,LWC V2.00 B2112,2013-06-08 14:01:00,
2013-06-08 10:06:00,70.3,70.3,29.91,ENE,75,0.0,1.0,100,0.00,,,0.00,LWC V2.00 B2112,2013-06-08 14:06:00,
2013-06-08 10:11:00,70.3,70.3,29.91,ENE,74,0.0,0.0,100,0.00,,,0.00,LWC V2.00 B2112,2013-06-08 14:11:00,
2013-06-08 10:16:00,70.3,70.3,29.91,NE,44,0.0,0.0,100,0.00,,,0.00,LWC V2.00 B2112,2013-06-08 14:16:00,
2013-06-08 10:21:00,69.8,69.8,29.91,ENE,60,0.0,0.0,100,0.00,,,0.00,LWC V2.00 B2112,2013-06-08 14:21:00,
2013-06-08 10:26:00,68.4,68.4,29.93,ENE,57,0.0,2.0,100,0.00,,,0.00,LWC V2.00 B2112,2013-06-08 14:26:00,
2013-06-08 10:31:00,67.8,67.8,29.93,ENE,57,0.0,0.0,100,0.00,,,0.00,LWC V2.00 B2112,2013-06-08 14:31:00,
2013-06-08 10:36:00,67.1,67.1,29.93,ENE,75,0.0,0.0,100,0.00,,,0.00,LWC V2.00 B2112,2013-06-08 14:36:00,
2013-06-08 10:41:00,66.6,66.6,29.93,ENE,63,0.0,1.0,100,0.00,,,0.00,LWC V2.00 B2112,2013-06-08 14:41:00,
2013-06-08 10:46:00,66.3,66.3,29.93,ENE,59,1.0,1.0,100,0.00,,,0.00,LWC V2.00 B2112,2013-06-08 14:46:00,
2013-06-08 10:51:00,66.3,66.3,29.93,ENE,59,0.0,1.0,100,0.00,,,0.00,LWC V2.00 B2112,2013-06-08 14:51:00,
2013-06-08 10:56:00,66.4,66.4,29.93,ENE,60,0.0,0.0,100,0.00,,,0.00,LWC V2.00 B2112,2013-06-08 14:56:00,
2013-06-08 11:01:00,66.9,66.9,29.93,ENE,60,0.0,0.0,100,0.00,,,0.00,LWC V2.00 B2112,2013-06-08 15:01:00,
2013-06-08 11:06:00,67.4,67.4,29.93,ENE,60,0.0,0.0,100,0.00,,,0.00,LWC V2.00 B2112,2013-06-08 15:06:00,
2013-06-08 11:11:00,67.4,67.4,29.93,ENE,57,0.0,0.0,100,0.00,,,0.00,LWC V2.00 B2112,2013-06-08 15:11:00,
2013-06-08 11:16:00,67.6,67.6,29.93,ENE,57,0.0,0.0,100,0.00,,,0.00,LWC V2.00 B2112,2013-06-08 15:16:00,
2013-06-08 11:21:00,67.9,67.9,29.93,ENE,57,0.0,0.0,100,0.00,,,0.00,LWC V2.00 B2112,2013-06-08 15:21:00,
2013-06-08 11:26:00,68.3,68.3,29.93,ENE,57,0.0,0.0,100,0.00,,,0.00,LWC V2.00 B2112,2013-06-08 15:26:00,
2013-06-08 11:31:00,68.6,68.6,29.93,ENE,57,0.0,0.0,100,0.00,,,0.00,LWC V2.00 B2112,2013-06-08 15:31:00,
2013-06-08 11:36:00,68.8,68.8,29.93,ENE,57,0.0,0.0,100,0.00,,,0.00,LWC V2.00 B2112,2013-06-08 15:36:00,
2013-06-08 11:41:00,69.3,69.3,29.94,ENE,57,0.0,0.0,100,0.00,,,0.00,LWC V2.00 B2112,2013-06-08 15:41:00,
2013-06-08 11:46:00,69.9,69.9,29.94,ENE,57,0.0,0.0,100,0.00,,,0.00,LWC V2.00 B2112,2013-06-08 15:46:00,
2013-06-08 11:51:00,69.9,69.9,29.94,ENE,57,0.0,0.0,100,0.00,,,0.00,LWC V2.00 B2112,2013-06-08 15:51:00,
2013-06-08 11:56:00,70.1,69.8,29.93,ENE,57,0.0,0.0,99,0.00,,,0.00,LWC V2.00 B2112,2013-06-08 15:56:00,
2013-06-08 12:01:00,70.4,70.1,29.93,ENE,57,0.0,0.0,99,0.00,,,0.00,LWC V2.00 B2112,2013-06-08 16:01:00,
2013-06-08 12:06:00,70.9,70.3,29.93,ENE,57,0.0,0.0,98,0.00,,,0.00,LWC V2.00 B2112,2013-06-08 16:06:00,
2013-06-08 12:11:00,70.8,69.6,29.93,ENE,57,0.0,0.0,96,0.00,,,0.00,LWC V2.00 B2112,2013-06-08 16:11:00,
2013-06-08 12:16:00,71.3,70.1,29.93,ENE,57,0.0,0.0,96,0.00,,,0.00,LWC V2.00 B2112,2013-06-08 16:16:00,
2013-06-08 12:21:00,71.6,69.8,29.93,ENE,57,0.0,0.0,94,0.00,,,0.00,LWC V2.00 B2112,2013-06-08 16:21:00,
2013-06-08 12:26:00,72.1,70.0,29.93,ENE,57,0.0,0.0,93,0.00,,,0.00,LWC V2.00 B2112,2013-06-08 16:26:00,
2013-06-08 12:31:00,72.8,70.0,29.93,ENE,57,0.0,0.0,91,0.00,,,0.00,LWC V2.00 B2112,2013-06-08 16:31:00,
2013-06-08 12:36:00,73.2,69.1,29.93,ENE,57,0.0,0.0,87,0.00,,,0.00,LWC V2.00 B2112,2013-06-08 16:36:00,
2013-06-08 12:41:00,73.7,69.9,29.93,ENE,57,0.0,0.0,88,0.00,,,0.00,LWC V2.00 B2112,2013-06-08 16:41:00,
2013-06-08 12:46:00,73.9,68.7,29.93,ENE,57,0.0,0.0,84,0.00,,,0.00,LWC V2.00 B2112,2013-06-08 16:46:00,
2013-06-08 12:51:00,74.4,69.2,29.93,ENE,57,0.0,0.0,84,0.00,,,0.00,LWC V2.00 B2112,2013-06-08 16:51:00,
2013-06-08 12:56:00,74.9,69.7,29.93,ENE,57,0.0,0.0,84,0.00,,,0.00,LWC V2.00 B2112,2013-06-08 16:56:00,
2013-06-08 13:01:00,75.4,69.9,29.93,ENE,57,0.0,0.0,83,0.00,,,0.00,LWC V2.00 B2112,2013-06-08 17:01:00,
2013-06-08 13:06:00,75.8,69.2,29.93,ENE,57,0.0,0.0,80,0.00,,,0.00,LWC V2.00 B2112,2013-06-08 17:06:00,
2013-06-08 13:11:00,75.8,69.5,29.93,ENE,57,0.0,0.0,81,0.00,,,0.00,LWC V2.00 B2112,2013-06-08 17:11:00,
2013-06-08 13:16:00,76.0,70.4,29.93,ENE,57,0.0,0.0,83,0.00,,,0.00,LWC V2.00 B2112,2013-06-08 17:16:00,
2013-06-08 13:21:00,76.3,70.4,29.93,ENE,57,0.0,0.0,82,0.00,,,0.00,LWC V2.00 B2112,2013-06-08 17:21:00,
2013-06-08 13:26:00,76.8,68.6,29.93,ENE,57,0.0,0.0,76,0.00,,,0.00,LWC V2.00 B2112,2013-06-08 17:26:00,
2013-06-08 13:31:00,77.2,69.0,29.93,ENE,57,0.0,0.0,76,0.00,,,0.00,LWC V2.00 B2112,2013-06-08 17:31:00,
2013-06-08 13:36:00,77.4,70.0,29.93,ENE,57,0.0,0.0,78,0.00,,,0.00,LWC V2.00 B2112,2013-06-08 17:36:00,
2013-06-08 13:41:00,77.2,69.8,29.93,ENE,57,0.0,1.0,78,0.00,,,0.00,LWC V2.00 B2112,2013-06-08 17:41:00,
2013-06-08 13:46:00,77.6,70.2,29.93,ENE,57,0.0,1.0,78,0.00,,,0.00,LWC V2.00 B2112,2013-06-08 17:46:00,
2013-06-08 13:51:00,78.3,72.3,29.93,ENE,57,0.0,3.0,82,0.00,,,0.00,LWC V2.00 B2112,2013-06-08 17:51:00,
2013-06-08 13:56:00,79.2,69.0,29.92,ENE,57,0.0,0.0,71,0.00,,,0.00,LWC V2.00 B2112,2013-06-08 17:56:00,
2013-06-08 14:01:00,79.8,70.4,29.92,ENE,57,0.0,0.0,73,0.00,,,0.00,LWC V2.00 B2112,2013-06-08 18:01:00,
2013-06-08 14:06:00,79.9,71.2,29.92,ENE,57,0.0,0.0,75,0.00,,,0.00,LWC V2.00 B2112,2013-06-08 18:06:00,
2013-06-08 14:11:00,80.3,68.8,29.92,ENE,57,0.0,2.0,68,0.00,,,0.00,LWC V2.00 B2112,2013-06-08 18:11:00,
2013-06-08 14:16:00,80.3,68.8,29.92,ENE,57,0.0,0.0,68,0.00,,,0.00,LWC V2.00 B2112,2013-06-08 18:16:00,
2013-06-08 14:21:00,79.9,70.0,29.92,ENE,57,0.0,0.0,72,0.00,,,0.00,LWC V2.00 B2112,2013-06-08 18:21:00,
2013-06-08 14:26:00,80.1,68.6,29.92,ENE,57,1.0,1.0,68,0.00,,,0.00,LWC V2.00 B2112,2013-06-08 18:26:00,
2013-06-08 14:31:00,80.3,68.8,29.92,ENE,57,0.0,5.0,68,0.00,,,0.00,LWC V2.00 B2112,2013-06-08 18:31:00,
2013-06-08 14:36:00,80.9,68.9,29.92,ENE,57,0.0,1.0,67,0.00,,,0.00,LWC V2.00 B2112,2013-06-08 18:36:00,
2013-06-08 14:41:00,80.9,69.3,29.93,ENE,57,0.0,0.0,68,0.00,,,0.00,LWC V2.00 B2112,2013-06-08 18:41:00,
2013-06-08 14:46:00,81.1,70.8,29.93,ENE,57,0.0,0.0,71,0.00,,,0.00,LWC V2.00 B2112,2013-06-08 18:46:00,
2013-06-08 14:51:00,80.7,70.0,29.93,ENE,57,0.0,2.0,70,0.00,,,0.00,LWC V2.00 B2112,2013-06-08 18:51:00,
2013-06-08 14:56:00,81.2,69.2,29.93,ENE,57,0.0,0.0,67,0.00,,,0.00,LWC V2.00 B2112,2013-06-08 18:56:00,
2013-06-08 15:01:00,81.1,69.9,29.93,ENE,57,0.0,0.0,69,0.00,,,0.00,LWC V2.00 B2112,2013-06-08 19:01:00,
2013-06-08 15:06:00,80.7,70.0,29.93,ENE,57,0.0,0.0,70,0.00,,,0.00,LWC V2.00 B2112,2013-06-08 19:06:00,
2013-06-08 15:11:00,81.1,69.9,29.93,ENE,57,0.0,0.0,69,0.00,,,0.00,LWC V2.00 B2112,2013-06-08 19:11:00,
2013-06-08 15:16:00,81.4,70.2,29.93,ENE,57,0.0,1.0,69,0.00,,,0.00,LWC V2.00 B2112,2013-06-08 19:16:00,
2013-06-08 15:21:00,81.4,72.3,29.93,ENE,57,0.0,0.0,74,0.00,,,0.00,LWC V2.00 B2112,2013-06-08 19:21:00,
2013-06-08 15:26:00,81.4,69.4,29.93,ENE,57,0.0,3.0,67,0.00,,,0.00,LWC V2.00 B2112,2013-06-08 19:26:00,
2013-06-08 15:31:00,80.9,70.2,29.93,ENE,57,0.0,0.0,70,0.00,,,0.00,LWC V2.00 B2112,2013-06-08 19:31:00,
2013-06-08 15:36:00,80.7,71.2,29.93,ENE,57,0.0,0.0,73,0.00,,,0.00,LWC V2.00 B2112,2013-06-08 19:36:00,
2013-06-08 15:41:00,81.1,69.5,29.93,ENE,57,0.0,1.0,68,0.00,,,0.00,LWC V2.00 B2112,2013-06-08 19:41:00,
2013-06-08 15:46:00,82.2,70.1,29.93,ENE,57,0.0,0.0,67,0.00,,,0.00,LWC V2.00 B2112,2013-06-08 19:46:00,
2013-06-08 15:51:00,82.2,71.0,29.93,ENE,57,0.0,0.0,69,0.00,,,0.00,LWC V2.00 B2112,2013-06-08 19:51:00,
2013-06-08 15:56:00,81.1,69.9,29.93,ENE,57,0.0,0.0,69,0.00,,,0.00,LWC V2.00 B2112,2013-06-08 19:56:00,
2013-06-08 16:01:00,81.1,69.5,29.93,ENE,57,0.0,1.0,68,0.00,,,0.00,LWC V2.00 B2112,2013-06-08 20:01:00,
2013-06-08 16:06:00,81.6,68.7,29.93,ENE,57,0.0,0.0,65,0.00,,,0.00,LWC V2.00 B2112,2013-06-08 20:06:00,
2013-06-08 16:11:00,81.6,68.2,29.93,ENE,57,0.0,1.0,64,0.00,,,0.00,LWC V2.00 B2112,2013-06-08 20:11:00,
2013-06-08 16:16:00,81.6,69.1,29.93,ENE,57,0.0,0.0,66,0.00,,,0.00,LWC V2.00 B2112,2013-06-08 20:16:00,
2013-06-08 16:21:00,81.2,69.6,29.93,ENE,57,0.0,0.0,68,0.00,,,0.00,LWC V2.00 B2112,2013-06-08 20:21:00,
2013-06-08 16:26:00,80.9,70.2,29.94,ENE,57,0.0,0.0,70,0.00,,,0.00,LWC V2.00 B2112,2013-06-08 20:26:00,
2013-06-08 16:31:00,80.5,70.6,29.94,ENE,57,0.0,0.0,72,0.00,,,0.00,LWC V2.00 B2112,2013-06-08 20:31:00,
2013-06-08 16:36:00,80.3,70.4,29.94,ENE,57,0.0,0.0,72,0.00,,,0.00,LWC V2.00 B2112,2013-06-08 20:36:00,
2013-06-08 16:41:00,80.3,69.2,29.94,ENE,57,0.0,1.0,69,0.00,,,0.00,LWC V2.00 B2112,2013-06-08 20:41:00,
2013-06-08 16:46:00,80.5,70.6,29.94,ENE,57,0.0,0.0,72,0.00,,,0.00,LWC V2.00 B2112,2013-06-08 20:46:00,
2013-06-08 16:51:00,80.5,68.9,29.94,ENE,57,0.0,3.0,68,0.00,,,0.00,LWC V2.00 B2112,2013-06-08 20:51:00,
2013-06-08 16:56:00,80.7,67.8,29.94,ENE,57,0.0,0.0,65,0.00,,,0.00,LWC V2.00 B2112,2013-06-08 20:56:00,
2013-06-08 17:01:00,81.1,69.5,29.94,ENE,57,0.0,0.0,68,0.00,,,0.00,LWC V2.00 B2112,2013-06-08 21:01:00,
2013-06-08 17:06:00,81.1,69.5,29.94,ENE,57,0.0,0.0,68,0.00,,,0.00,LWC V2.00 B2112,2013-06-08 21:06:00,
2013-06-08 17:11:00,80.9,69.3,29.94,ENE,57,0.0,0.0,68,0.00,,,0.00,LWC V2.00 B2112,2013-06-08 21:11:00,
2013-06-08 17:16:00,80.7,69.6,29.94,ENE,57,0.0,0.0,69,0.00,,,0.00,LWC V2.00 B2112,2013-06-08 21:16:00,
2013-06-08 17:21:00,80.5,69.4,29.94,ENE,57,0.0,0.0,69,0.00,,,0.00,LWC V2.00 B2112,2013-06-08 21:21:00,
2013-06-08 17:26:00,80.1,69.4,29.94,ENE,57,0.0,1.0,70,0.00,,,0.00,LWC V2.00 B2112,2013-06-08 21:26:00,
2013-06-08 17:31:00,79.9,69.6,29.94,ENE,57,0.0,0.0,71,0.00,,,0.00,LWC V2.00 B2112,2013-06-08 21:31:00,
2013-06-08 17:36:00,79.9,70.0,29.94,ENE,57,0.0,0.0,72,0.00,,,0.00,LWC V2.00 B2112,2013-06-08 21:36:00,
2013-06-08 17:41:00,79.8,67.8,29.94,ENE,57,0.0,1.0,67,0.00,,,0.00,LWC V2.00 B2112,2013-06-08 21:41:00,
2013-06-08 17:46:00,79.8,68.7,29.94,ENE,57,0.0,2.0,69,0.00,,,0.00,LWC V2.00 B2112,2013-06-08 21:46:00,
2013-06-08 17:51:00,79.8,71.1,29.94,ENE,57,0.0,0.0,75,0.00,,,0.00,LWC V2.00 B2112,2013-06-08 21:51:00,
2013-06-08 17:56:00,79.6,71.3,29.95,ENE,57,0.0,0.0,76,0.00,,,0.00,LWC V2.00 B2112,2013-06-08 21:56:00,
2013-06-08 18:01:00,79.4,68.3,29.95,ENE,57,0.0,3.0,69,0.00,,,0.00,LWC V2.00 B2112,2013-06-08 22:01:00,
2013-06-08 18:06:00,79.4,69.6,29.95,ENE,57,0.0,1.0,72,0.00,,,0.00,LWC V2.00 B2112,2013-06-08 22:06:00,
2013-06-08 18:11:00,79.4,70.0,29.95,ENE,57,0.0,0.0,73,0.00,,,0.00,LWC V2.00 B2112,2013-06-08 22:11:00,
2013-06-08 18:16:00,79.4,70.0,29.95,ENE,57,0.0,0.0,73,0.00,,,0.00,LWC V2.00 B2112,2013-06-08 22:16:00,
2013-06-08 18:21:00,79.2,69.0,29.95,ENE,57,0.0,1.0,71,0.00,,,0.00,LWC V2.00 B2112,2013-06-08 22:21:00,
2013-06-08 18:26:00,79.2,69.4,29.95,ENE,57,0.0,0.0,72,0.00,,,0.00,LWC V2.00 B2112,2013-06-08 22:26:00,
2013-06-08 18:31:00,79.0,70.0,29.95,ENE,57,0.0,0.0,74,0.00,,,0.00,LWC V2.00 B2112,2013-06-08 22:31:00,
2013-06-08 18:36:00,78.6,69.2,29.95,ENE,57,0.0,1.0,73,0.00,,,0.00,LWC V2.00 B2112,2013-06-08 22:36:00,
2013-06-08 18:41:00,78.5,69.5,29.96,ENE,57,0.0,0.0,74,0.00,,,0.00,LWC V2.00 B2112,2013-06-08 22:41:00,
2013-06-08 18:46:00,78.3,69.7,29.96,ENE,57,0.0,0.0,75,0.00,,,0.00,LWC V2.00 B2112,2013-06-08 22:46:00,
2013-06-08 18:51:00,78.1,70.3,29.96,ENE,57,0.0,0.0,77,0.00,,,0.00,LWC V2.00 B2112,2013-06-08 22:51:00,
2013-06-08 18:56:00,77.9,70.5,29.96,ENE,57,0.0,0.0,78,0.00,,,0.00,LWC V2.00 B2112,2013-06-08 22:56:00,
2013-06-08 19:01:00,77.7,70.3,29.96,ENE,57,0.0,0.0,78,0.00,,,0.00,LWC V2.00 B2112,2013-06-08 23:01:00,
2013-06-08 19:06:00,77.6,70.9,29.96,ENE,57,0.0,0.0,80,0.00,,,0.00,LWC V2.00 B2112,2013-06-08 23:06:00,
2013-06-08 19:11:00,77.4,70.4,29.97,ENE,57,0.0,0.0,79,0.00,,,0.00,LWC V2.00 B2112,2013-06-08 23:11:00,
2013-06-08 19:16:00,77.2,70.5,29.97,ENE,57,0.0,0.0,80,0.00,,,0.00,LWC V2.00 B2112,2013-06-08 23:16:00,
2013-06-08 19:21:00,77.0,70.7,29.97,ENE,57,0.0,0.0,81,0.00,,,0.00,LWC V2.00 B2112,2013-06-08 23:21:00,
2013-06-08 19:26:00,76.8,70.5,29.98,ENE,57,0.0,0.0,81,0.00,,,0.00,LWC V2.00 B2112,2013-06-08 23:26:00,
2013-06-08 19:31:00,76.7,70.8,29.98,ENE,57,0.0,0.0,82,0.00,,,0.00,LWC V2.00 B2112,2013-06-08 23:31:00,
2013-06-08 19:36:00,76.5,70.2,29.98,ENE,57,0.0,0.0,81,0.00,,,0.00,LWC V2.00 B2112,2013-06-08 23:36:00,
2013-06-08 19:41:00,76.3,70.4,29.98,ENE,57,0.0,0.0,82,0.00,,,0.00,LWC V2.00 B2112,2013-06-08 23:41:00,
2013-06-08 19:46:00,76.1,70.5,29.98,ENE,57,0.0,0.0,83,0.00,,,0.00,LWC V2.00 B2112,2013-06-08 23:46:00,
2013-06-08 19:51:00,76.0,70.4,29.98,ENE,57,0.0,0.0,83,0.00,,,0.00,LWC V2.00 B2112,2013-06-08 23:51:00,
2013-06-08 19:56:00,75.8,70.6,29.99,ENE,57,0.0,0.0,84,0.00,,,0.00,LWC V2.00 B2112,2013-06-08 23:56:00,
2013-06-08 20:01:00,75.6,70.4,29.99,ENE,57,0.0,0.0,84,0.00,,,0.00,LWC V2.00 B2112,2013-06-09 00:01:00,
2013-06-08 20:06:00,75.4,70.6,29.99,ENE,57,0.0,0.0,85,0.00,,,0.00,LWC V2.00 B2112,2013-06-09 00:06:00,
2013-06-08 20:11:00,75.3,70.5,29.99,ENE,57,0.0,0.0,85,0.00,,,0.00,LWC V2.00 B2112,2013-06-09 00:11:00,
2013-06-08 20:16:00,75.1,70.3,29.99,ENE,57,0.0,0.0,85,0.00,,,0.00,LWC V2.00 B2112,2013-06-09 00:16:00,
2013-06-08 20:21:00,74.7,70.2,29.99,ENE,57,0.0,0.0,86,0.00,,,0.00,LWC V2.00 B2112,2013-06-09 00:21:00,
2013-06-08 20:26:00,74.6,70.1,30.00,ENE,57,0.0,0.0,86,0.00,,,0.00,LWC V2.00 B2112,2013-06-09 00:26:00,
2013-06-08 20:31:00,74.4,69.9,30.00,ENE,57,0.0,0.0,86,0.00,,,0.00,LWC V2.00 B2112,2013-06-09 00:31:00,
2013-06-08 20:36:00,74.2,70.1,30.00,ENE,57,0.0,0.0,87,0.00,,,0.00,LWC V2.00 B2112,2013-06-09 00:36:00,
2013-06-08 20:41:00,73.9,69.8,30.00,ENE,57,0.0,0.0,87,0.00,,,0.00,LWC V2.00 B2112,2013-06-09 00:41:00,
2013-06-08 20:46:00,73.7,69.6,30.00,ENE,57,0.0,0.0,87,0.00,,,0.00,LWC V2.00 B2112,2013-06-09 00:46:00,
2013-06-08 20:51:00,73.5,69.4,30.00,ENE,57,0.0,0.0,87,0.00,,,0.00,LWC V2.00 B2112,2013-06-09 00:51:00,
2013-06-08 20:56:00,73.3,69.5,30.00,ENE,57,0.0,0.0,88,0.00,,,0.00,LWC V2.00 B2112,2013-06-09 00:56:00,
2013-06-08 21:01:00,73.2,69.4,30.00,ENE,57,0.0,0.0,88,0.00,,,0.00,LWC V2.00 B2112,2013-06-09 01:01:00,
2013-06-08 21:06:00,73.0,69.2,30.00,ENE,57,0.0,0.0,88,0.00,,,0.00,LWC V2.00 B2112,2013-06-09 01:06:00,
2013-06-08 21:11:00,72.7,68.9,30.01,ENE,57,0.0,0.0,88,0.00,,,0.00,LWC V2.00 B2112,2013-06-09 01:11:00,
2013-06-08 21:16:00,72.5,69.1,30.01,ENE,57,0.0,0.0,89,0.00,,,0.00,LWC V2.00 B2112,2013-06-09 01:16:00,
2013-06-08 21:21:00,72.3,68.9,30.01,ENE,57,0.0,0.0,89,0.00,,,0.00,LWC V2.00 B2112,2013-06-09 01:21:00,
2013-06-08 21:26:00,72.1,69.0,30.02,ENE,57,0.0,0.0,90,0.00,,,0.00,LWC V2.00 B2112,2013-06-09 01:26:00,
2013-06-08 21:31:00,72.0,68.9,30.02,ENE,57,0.0,0.0,90,0.00,,,0.00,LWC V2.00 B2112,2013-06-09 01:31:00,
2013-06-08 21:36:00,71.8,68.7,30.02,ENE,57,0.0,0.0,90,0.00,,,0.00,LWC V2.00 B2112,2013-06-09 01:36:00,
2013-06-08 21:41:00,71.6,68.8,30.03,ENE,57,0.0,0.0,91,0.00,,,0.00,LWC V2.00 B2112,2013-06-09 01:41:00,
2013-06-08 21:46:00,71.5,68.7,30.03,ENE,57,0.0,0.0,91,0.00,,,0.00,LWC V2.00 B2112,2013-06-09 01:46:00,
2013-06-08 21:51:00,71.5,68.7,30.03,ENE,57,0.0,0.0,91,0.00,,,0.00,LWC V2.00 B2112,2013-06-09 01:51:00,
2013-06-08 21:56:00,71.3,68.5,30.03,ENE,57,0.0,0.0,91,0.00,,,0.00,LWC V2.00 B2112,2013-06-09 01:56:00,
2013-06-08 22:01:00,71.1,68.3,30.03,ENE,57,0.0,0.0,91,0.00,,,0.00,LWC V2.00 B2112,2013-06-09 02:01:00,
2013-06-08 22:06:00,70.9,68.1,30.03,ENE,57,0.0,0.0,91,0.00,,,0.00,LWC V2.00 B2112,2013-06-09 02:06:00,
2013-06-08 22:11:00,70.9,68.1,30.03,ENE,57,0.0,0.0,91,0.00,,,0.00,LWC V2.00 B2112,2013-06-09 02:11:00,
2013-06-08 22:16:00,70.8,68.4,30.03,ENE,57,0.0,0.0,92,0.00,,,0.00,LWC V2.00 B2112,2013-06-09 02:16:00,
2013-06-08 22:21:00,70.6,68.2,30.03,ENE,57,0.0,0.0,92,0.00,,,0.00,LWC V2.00 B2112,2013-06-09 02:21:00,
2013-06-08 22:26:00,70.6,68.2,30.04,ENE,57,0.0,0.0,92,0.00,,,0.00,LWC V2.00 B2112,2013-06-09 02:26:00,
2013-06-08 22:31:00,70.4,68.0,30.04,ENE,57,0.0,0.0,92,0.00,,,0.00,LWC V2.00 B2112,2013-06-09 02:31:00,
2013-06-08 22:36:00,70.3,67.9,30.04,ENE,57,0.0,0.0,92,0.00,,,0.00,LWC V2.00 B2112,2013-06-09 02:36:00,
2013-06-08 22:41:00,70.3,67.9,30.05,ENE,57,0.0,0.0,92,0.00,,,0.00,LWC V2.00 B2112,2013-06-09 02:41:00,
2013-06-08 22:46:00,70.1,67.7,30.05,ENE,57,0.0,0.0,92,0.00,,,0.00,LWC V2.00 B2112,2013-06-09 02:46:00,
2013-06-08 22:51:00,69.9,67.8,30.05,ENE,57,0.0,0.0,93,0.00,,,0.00,LWC V2.00 B2112,2013-06-09 02:51:00,
2013-06-08 22:56:00,69.9,67.8,30.05,ENE,57,0.0,0.0,93,0.00,,,0.00,LWC V2.00 B2112,2013-06-09 02:56:00,
2013-06-08 23:01:00,69.8,67.7,30.05,ENE,57,0.0,0.0,93,0.00,,,0.00,LWC V2.00 B2112,2013-06-09 03:01:00,
2013-06-08 23:06:00,69.8,67.7,30.05,ENE,57,0.0,0.0,93,0.00,,,0.00,LWC V2.00 B2112,2013-06-09 03:06:00,
2013-06-08 23:11:00,69.6,67.5,30.05,ENE,57,0.0,0.0,93,0.00,,,0.00,LWC V2.00 B2112,2013-06-09 03:11:00,
2013-06-08 23:16:00,69.6,67.5,30.05,ENE,57,0.0,0.0,93,0.00,,,0.00,LWC V2.00 B2112,2013-06-09 03:16:00,
2013-06-08 23:21:00,69.6,67.5,30.05,ENE,57,0.0,0.0,93,0.00,,,0.00,LWC V2.00 B2112,2013-06-09 03:21:00,
2013-06-08 23:26:00,69.4,67.6,30.05,ENE,57,0.0,0.0,94,0.00,,,0.00,LWC V2.00 B2112,2013-06-09 03:26:00,
2013-06-08 23:31:00,69.4,67.3,30.05,ENE,57,0.0,0.0,93,0.00,,,0.00,LWC V2.00 B2112,2013-06-09 03:31:00,
2013-06-08 23:36:00,69.4,67.3,30.05,ENE,57,0.0,0.0,93,0.00,,,0.00,LWC V2.00 B2112,2013-06-09 03:36:00,
2013-06-08 23:41:00,69.3,67.5,30.05,ENE,57,0.0,0.0,94,0.00,,,0.00,LWC V2.00 B2112,2013-06-09 03:41:00,
2013-06-08 23:46:00,69.3,67.5,30.05,ENE,57,0.0,0.0,94,0.00,,,0.00,LWC V2.00 B2112,2013-06-09 03:46:00,
2013-06-08 23:51:00,69.1,67.3,30.05,ENE,57,0.0,0.0,94,0.00,,,0.00,LWC V2.00 B2112,2013-06-09 03:51:00,
2013-06-08 23:56:00,69.1,67.3,30.05,ENE,57,0.0,0.0,94,0.00,,,0.00,LWC V2.00 B2112,2013-06-09 03:56:00,